createdAt,value
2019-02-28T00:01:43.266Z,12.97
2019-02-28T00:04:32.973Z,8.97
2019-02-28T00:07:12.481Z,8.80
2019-02-28T00:09:42.084Z,10.73
2019-02-28T00:17:48.620Z,15.87
2019-02-28T00:20:18.197Z,13.50
2019-02-28T00:22:49.275Z,12.83
2019-02-28T00:25:24.691Z,10.70
2019-02-28T00:27:54.218Z,16.23
2019-02-28T00:30:37.356Z,15.60
2019-02-28T00:33:07.372Z,12.33
2019-02-28T00:35:37.250Z,13.30
2019-02-28T00:38:06.874Z,10.98
2019-02-28T00:43:31.316Z,15.07
2019-02-28T00:48:54.718Z,10.70
2019-02-28T00:51:24.281Z,13.63
2019-02-28T00:53:53.865Z,12.57
2019-02-28T00:56:23.448Z,12.90
2019-02-28T00:58:53.001Z,12.77
2019-02-28T01:01:22.542Z,15.30
2019-02-28T01:03:53.701Z,15.10
2019-02-28T01:06:23.315Z,14.80
2019-02-28T01:08:56.128Z,18.30
2019-02-28T01:14:10.974Z,18.90
2019-02-28T01:16:42.170Z,16.30
2019-02-28T01:19:11.682Z,18.43
2019-02-28T01:21:55.423Z,19.67
2019-02-28T01:24:24.940Z,16.17
2019-02-28T01:26:54.638Z,19.70
2019-02-28T01:29:24.200Z,24.45
2019-02-28T01:34:47.804Z,28.83
2019-02-28T01:37:17.332Z,30.57
2019-02-28T01:39:46.856Z,28.07
2019-02-28T01:42:20.080Z,29.13
2019-02-28T01:45:09.783Z,29.13
2019-02-28T01:47:44.828Z,28.70
2019-02-28T01:53:02.968Z,26.60
2019-02-28T01:55:32.590Z,25.80
2019-02-28T02:00:53.588Z,23.50
2019-02-28T02:03:42.005Z,20.03
2019-02-28T02:06:11.680Z,22.17
2019-02-28T02:08:53.808Z,25.17
2019-02-28T02:17:01.096Z,29.93
2019-02-28T02:19:39.529Z,31.75
2019-02-28T02:22:10.102Z,28.50
2019-02-28T02:25:02.936Z,26.60
2019-02-28T02:27:36.444Z,30.53
2019-02-28T02:30:28.183Z,25.90
2019-02-28T02:32:57.766Z,26.27
2019-02-28T02:35:27.295Z,25.90
2019-02-28T02:37:56.920Z,30.60
2019-02-28T02:40:26.464Z,29.50
2019-02-28T02:42:56.021Z,26.20
2019-02-28T02:45:25.548Z,29.47
2019-02-28T02:47:55.162Z,26.80
2019-02-28T02:50:24.787Z,27.60
2019-02-28T02:52:54.371Z,28.90
2019-02-28T02:55:28.046Z,31.47
2019-02-28T02:58:07.992Z,38.87
2019-02-28T03:00:37.593Z,29.02
2019-02-28T03:03:07.822Z,39.27
2019-02-28T03:05:43.875Z,33.60
2019-02-28T03:08:13.448Z,40.03
2019-02-28T03:10:43.040Z,33.50
2019-02-28T03:13:12.575Z,35.43
2019-02-28T03:15:42.137Z,43.00
2019-02-28T03:21:05.408Z,36.17
2019-02-28T03:23:40.132Z,31.60
2019-02-28T03:26:25.284Z,39.97
2019-02-28T03:28:56.518Z,38.13
2019-02-28T03:31:26.266Z,38.60
2019-02-28T03:33:55.909Z,37.98
2019-02-28T03:36:25.488Z,44.43
2019-02-28T03:38:55.017Z,46.23
2019-02-28T03:41:24.576Z,37.90
2019-02-28T03:43:55.714Z,43.40
2019-02-28T03:46:37.458Z,39.40
2019-02-28T03:49:11.006Z,40.57
2019-02-28T03:51:43.913Z,47.53
2019-02-28T03:54:13.454Z,49.60
2019-02-28T03:56:43.035Z,38.90
2019-02-28T03:59:18.171Z,50.37
2019-02-28T04:02:21.000Z,45.80
2019-02-28T04:05:28.447Z,44.57
2019-02-28T04:08:04.195Z,49.80
2019-02-28T04:10:54.742Z,53.13
2019-02-28T04:13:43.385Z,56.83
2019-02-28T04:16:13.036Z,53.30
2019-02-28T04:18:46.131Z,47.50
2019-02-28T04:21:19.745Z,58.97
2019-02-28T04:24:12.896Z,51.90
2019-02-28T04:26:45.435Z,52.08
2019-02-28T04:29:14.989Z,58.92
2019-02-28T04:31:44.517Z,58.70
2019-02-28T04:34:14.442Z,56.65
2019-02-28T04:37:08.544Z,52.55
2019-02-28T04:39:45.075Z,51.77
2019-02-28T04:42:14.621Z,64.87
2019-02-28T04:44:44.138Z,60.40
2019-02-28T04:47:13.662Z,63.70
2019-02-28T04:49:43.186Z,67.97
2019-02-28T04:52:25.066Z,65.27
2019-02-28T04:55:06.477Z,57.43
2019-02-28T04:57:36.983Z,61.10
2019-02-28T05:00:07.146Z,73.47
2019-02-28T05:02:36.646Z,64.43
2019-02-28T05:05:06.217Z,79.23
2019-02-28T05:07:36.218Z,68.62
2019-02-28T05:10:06.273Z,65.40
2019-02-28T05:12:40.002Z,77.85
2019-02-28T05:15:07.482Z,69.10
2019-02-28T05:17:37.454Z,60.70
2019-02-28T05:20:10.774Z,58.57
2019-02-28T05:22:38.853Z,56.20
2019-02-28T05:25:08.436Z,55.77
2019-02-28T05:27:38.133Z,54.70
2019-02-28T05:30:09.691Z,57.40
2019-02-28T05:32:39.237Z,54.20
2019-02-28T05:35:09.162Z,52.13
2019-02-28T05:37:38.789Z,67.22
2019-02-28T05:40:10.219Z,46.97
2019-02-28T05:42:39.823Z,61.57
2019-02-28T05:45:11.466Z,57.15
2019-02-28T05:47:47.513Z,48.85
2019-02-28T05:50:27.192Z,56.08
2019-02-28T05:52:56.763Z,52.43
2019-02-28T05:55:26.362Z,55.35
2019-02-28T05:57:56.003Z,51.93
2019-02-28T06:03:21.689Z,55.17
2019-02-28T06:05:51.301Z,52.17
2019-02-28T06:08:20.821Z,60.77
2019-02-28T06:11:09.621Z,57.10
2019-02-28T06:13:39.157Z,53.10
2019-02-28T06:16:12.318Z,60.73
2019-02-28T06:18:58.997Z,59.63
2019-02-28T06:21:40.845Z,58.78
2019-02-28T06:24:12.747Z,53.77
2019-02-28T06:26:47.174Z,54.70
2019-02-28T06:29:16.692Z,57.77
2019-02-28T06:31:48.585Z,64.97
2019-02-28T06:34:39.466Z,51.33
2019-02-28T06:37:13.796Z,48.80
2019-02-28T06:39:43.302Z,59.20
2019-02-28T06:42:12.835Z,69.40
2019-02-28T06:44:42.532Z,67.07
2019-02-28T06:47:14.193Z,59.60
2019-02-28T06:49:48.913Z,70.03
2019-02-28T06:52:18.428Z,73.97
2019-02-28T06:57:44.213Z,61.40
2019-02-28T07:03:27.549Z,76.00
2019-02-28T07:05:57.555Z,64.97
2019-02-28T07:08:33.974Z,55.35
2019-02-28T07:11:03.532Z,70.57
2019-02-28T07:13:33.085Z,84.20
2019-02-28T07:16:04.363Z,68.50
2019-02-28T07:18:39.969Z,68.97
2019-02-28T07:21:09.484Z,66.80
2019-02-28T07:23:58.040Z,68.05
2019-02-28T07:29:42.661Z,58.17
2019-02-28T07:32:18.285Z,55.80
2019-02-28T07:34:47.845Z,63.73
2019-02-28T07:37:18.893Z,69.42
2019-02-28T07:39:54.498Z,78.03
2019-02-28T07:42:24.761Z,73.83
2019-02-28T07:47:43.433Z,69.40
2019-02-28T07:53:26.389Z,66.17
2019-02-28T07:55:55.982Z,68.40
2019-02-28T08:01:06.620Z,57.13
2019-02-28T08:03:36.177Z,86.00
2019-02-28T08:06:05.921Z,72.20
2019-02-28T08:08:35.467Z,63.13
2019-02-28T08:11:06.093Z,61.93
2019-02-28T08:13:37.728Z,73.90
2019-02-28T08:16:12.847Z,65.22
2019-02-28T08:18:51.168Z,74.85
2019-02-28T08:21:30.036Z,79.03
2019-02-28T08:24:02.492Z,67.37
2019-02-28T08:26:36.427Z,62.67
2019-02-28T08:29:07.980Z,63.77
2019-02-28T08:31:37.449Z,63.97
2019-02-28T08:34:06.986Z,80.93
2019-02-28T08:36:36.557Z,73.30
2019-02-28T08:39:28.090Z,71.77
2019-02-28T08:42:02.589Z,57.33
2019-02-28T08:44:34.291Z,64.92
2019-02-28T08:47:04.133Z,64.70
2019-02-28T08:49:33.768Z,82.77
2019-02-28T08:52:15.864Z,75.50
2019-02-28T08:54:45.455Z,71.70
2019-02-28T08:57:15.073Z,78.03
2019-02-28T08:59:44.724Z,74.83
2019-02-28T09:02:18.115Z,64.43
2019-02-28T09:05:06.706Z,57.53
2019-02-28T09:07:42.303Z,75.10
2019-02-28T09:10:15.114Z,66.20
2019-02-28T09:12:44.756Z,70.70
2019-02-28T09:15:15.020Z,78.93
2019-02-28T09:17:44.664Z,70.47
2019-02-28T09:20:14.626Z,61.08
2019-02-28T09:22:44.365Z,66.57
2019-02-28T09:25:14.926Z,74.07
2019-02-28T09:27:44.523Z,65.17
2019-02-28T09:30:17.225Z,71.66
2019-02-28T09:32:48.297Z,65.85
2019-02-28T09:35:37.857Z,74.13
2019-02-28T09:38:13.237Z,64.67
2019-02-28T09:40:57.958Z,66.53
2019-02-28T09:43:46.834Z,64.00
2019-02-28T09:46:16.466Z,70.80
2019-02-28T09:48:46.008Z,72.78
2019-02-28T09:51:17.193Z,58.90
2019-02-28T09:53:47.327Z,60.13
2019-02-28T09:56:23.772Z,58.00
2019-02-28T09:58:53.399Z,64.75
2019-02-28T10:01:24.443Z,60.97
2019-02-28T10:04:03.273Z,63.53
2019-02-28T10:06:33.305Z,65.57
2019-02-28T10:09:44.380Z,57.63
2019-02-28T10:12:19.700Z,76.83
2019-02-28T10:14:49.344Z,75.85
2019-02-28T10:17:19.044Z,78.53
2019-02-28T10:19:51.973Z,72.90
2019-02-28T10:22:39.586Z,65.52
2019-02-28T10:25:10.130Z,70.83
2019-02-28T10:27:40.185Z,74.62
2019-02-28T10:30:15.938Z,63.60
2019-02-28T10:32:44.593Z,66.33
2019-02-28T10:35:54.200Z,60.10
2019-02-28T10:38:23.841Z,60.00
2019-02-28T10:40:55.211Z,58.20
2019-02-28T10:43:24.771Z,59.93
2019-02-28T10:45:54.368Z,61.55
2019-02-28T10:48:23.922Z,65.83
2019-02-28T10:50:53.507Z,66.53
2019-02-28T10:53:23.217Z,57.90
2019-02-28T10:55:54.476Z,69.72
2019-02-28T10:58:43.500Z,64.67
2019-02-28T11:01:14.140Z,63.75
2019-02-28T11:03:43.704Z,75.77
2019-02-28T11:06:13.297Z,58.20
2019-02-28T11:08:44.431Z,59.37
2019-02-28T11:11:19.921Z,55.03
2019-02-28T11:13:49.580Z,72.55
2019-02-28T11:16:20.431Z,68.17
2019-02-28T11:19:09.723Z,54.13
2019-02-28T11:21:39.435Z,61.18
2019-02-28T11:24:09.205Z,51.77
2019-02-28T11:26:41.313Z,53.93
2019-02-28T11:29:29.206Z,51.37
2019-02-28T11:31:59.084Z,48.30
2019-02-28T11:35:08.559Z,58.10
2019-02-28T11:37:38.442Z,54.00
2019-02-28T11:40:09.250Z,63.00
2019-02-28T11:42:39.040Z,51.07
2019-02-28T11:45:13.374Z,55.23
2019-02-28T11:47:43.454Z,56.15
2019-02-28T11:50:13.250Z,54.17
2019-02-28T11:52:42.912Z,57.60
2019-02-28T11:55:12.808Z,46.70
2019-02-28T11:57:42.594Z,65.43
2019-02-28T12:00:16.540Z,69.30
2019-02-28T12:02:53.100Z,60.92
2019-02-28T12:05:36.552Z,54.80
2019-02-28T12:08:09.569Z,53.60
2019-02-28T12:10:43.118Z,61.40
2019-02-28T12:13:12.726Z,66.12
2019-02-28T12:15:42.417Z,55.10
2019-02-28T12:18:12.099Z,59.47
2019-02-28T12:20:41.699Z,50.10
2019-02-28T12:23:11.335Z,60.15
2019-02-28T12:25:42.804Z,54.77
2019-02-28T12:31:06.366Z,62.60
2019-02-28T12:33:36.030Z,61.77
2019-02-28T12:36:05.829Z,57.70
2019-02-28T12:38:35.675Z,56.45
2019-02-28T12:41:05.522Z,54.07
2019-02-28T12:43:35.115Z,65.83
2019-02-28T12:46:04.987Z,63.52
2019-02-28T12:48:34.742Z,54.10
2019-02-28T12:51:05.382Z,49.30
2019-02-28T12:53:56.211Z,60.03
2019-02-28T12:56:31.519Z,51.47
2019-02-28T12:59:01.150Z,58.20
2019-02-28T13:01:33.200Z,63.60
2019-02-28T13:04:22.296Z,51.15
2019-02-28T13:09:59.922Z,53.07
2019-02-28T13:12:29.971Z,52.00
2019-02-28T13:14:59.573Z,54.20
2019-02-28T13:17:31.660Z,58.23
2019-02-28T13:20:20.924Z,49.33
2019-02-28T13:22:55.629Z,56.42
2019-02-28T13:25:42.756Z,54.10
2019-02-28T13:28:12.365Z,52.53
2019-02-28T13:30:49.304Z,52.00
2019-02-28T13:33:18.933Z,44.30
2019-02-28T13:35:48.519Z,48.73
2019-02-28T13:38:19.549Z,48.63
2019-02-28T13:40:55.366Z,47.60
2019-02-28T13:43:24.964Z,48.77
2019-02-28T13:45:56.216Z,52.50
2019-02-28T13:48:33.797Z,45.33
2019-02-28T13:51:08.932Z,54.40
2019-02-28T13:53:38.593Z,49.07
2019-02-28T13:56:29.044Z,48.00
2019-02-28T13:59:04.986Z,44.60
2019-02-28T14:01:34.562Z,55.43
2019-02-28T14:04:18.698Z,56.83
2019-02-28T14:06:52.391Z,47.13
2019-02-28T14:09:26.073Z,52.20
2019-02-28T14:11:55.980Z,48.60
2019-02-28T14:14:25.571Z,55.50
2019-02-28T14:16:58.386Z,45.70
2019-02-28T14:19:45.725Z,49.27
2019-02-28T14:22:15.366Z,53.75
2019-02-28T14:24:44.908Z,71.60
2019-02-28T14:27:14.611Z,51.73
2019-02-28T14:29:48.387Z,51.17
2019-02-28T14:32:34.636Z,51.37
2019-02-28T14:35:05.170Z,57.33
2019-02-28T14:37:34.793Z,59.83
2019-02-28T14:40:25.181Z,39.53
2019-02-28T14:43:14.419Z,53.08
2019-02-28T14:45:44.171Z,48.70
2019-02-28T14:48:13.877Z,54.60
2019-02-28T14:50:43.698Z,53.30
2019-02-28T14:53:14.559Z,56.28
2019-02-28T14:55:44.388Z,57.95
2019-02-28T14:58:14.045Z,47.07
2019-02-28T15:00:43.673Z,53.70
2019-02-28T15:03:25.183Z,52.93
2019-02-28T15:05:56.271Z,55.15
2019-02-28T15:08:47.463Z,51.13
2019-02-28T15:11:17.633Z,45.40
2019-02-28T15:13:47.241Z,54.67
2019-02-28T15:16:16.973Z,57.93
2019-02-28T15:18:47.723Z,60.27
2019-02-28T15:21:23.946Z,53.30
2019-02-28T15:23:53.608Z,50.37
2019-02-28T15:26:26.657Z,51.83
2019-02-28T15:29:00.710Z,50.88
2019-02-28T15:31:30.462Z,53.58
2019-02-28T15:34:02.251Z,54.75
2019-02-28T15:36:31.629Z,54.90
2019-02-28T15:39:01.354Z,49.25
2019-02-28T15:41:33.858Z,63.13
2019-02-28T15:44:25.715Z,52.20
2019-02-28T15:46:59.837Z,53.20
2019-02-28T15:49:34.683Z,44.60
2019-02-28T15:52:05.290Z,55.73
2019-02-28T15:54:56.923Z,58.97
2019-02-28T15:57:31.846Z,47.53
2019-02-28T16:02:43.101Z,63.70
2019-02-28T16:05:13.026Z,53.92
2019-02-28T16:07:42.742Z,52.53
2019-02-28T16:10:32.139Z,46.95
2019-02-28T16:13:08.582Z,52.53
2019-02-28T16:15:38.181Z,52.83
2019-02-28T16:18:08.797Z,55.70
2019-02-28T16:20:44.457Z,53.47
2019-02-28T16:23:14.151Z,55.90
2019-02-28T16:28:25.342Z,60.73
2019-02-28T16:30:54.975Z,56.43
2019-02-28T16:33:25.454Z,52.87
2019-02-28T16:36:02.098Z,55.20
2019-02-28T16:38:33.250Z,54.67
2019-02-28T16:41:04.305Z,49.95
2019-02-28T16:43:34.079Z,55.53
2019-02-28T16:46:15.497Z,52.43
2019-02-28T16:48:45.663Z,52.90
2019-02-28T16:51:15.271Z,60.07
2019-02-28T16:53:47.991Z,49.10
2019-02-28T16:59:03.996Z,55.98
2019-02-28T17:01:33.542Z,53.90
2019-02-28T17:04:22.217Z,51.37
2019-02-28T17:06:51.843Z,56.67
2019-02-28T17:09:26.705Z,53.20
2019-02-28T17:12:15.406Z,52.87
2019-02-28T17:14:47.897Z,45.55
2019-02-28T17:17:21.508Z,50.70
2019-02-28T17:19:51.078Z,68.13
2019-02-28T17:22:23.767Z,51.77
2019-02-28T17:25:11.266Z,80.27
2019-02-28T17:28:00.115Z,55.60
2019-02-28T17:30:49.366Z,49.70
2019-02-28T17:33:19.041Z,55.40
2019-02-28T17:35:49.265Z,60.12
2019-02-28T17:38:18.984Z,51.47
2019-02-28T17:40:48.559Z,54.95
2019-02-28T17:43:18.099Z,46.70
2019-02-28T17:45:50.589Z,56.18
2019-02-28T17:48:52.598Z,57.15
2019-02-28T17:55:37.669Z,52.93
2019-02-28T17:58:12.627Z,54.63
2019-02-28T18:01:09.986Z,54.65
2019-02-28T18:07:23.674Z,61.13
2019-02-28T18:10:51.133Z,52.50
2019-02-28T18:13:59.433Z,54.33
2019-02-28T18:17:07.474Z,57.90
2019-02-28T18:20:16.188Z,53.52
2019-02-28T18:26:16.265Z,53.27
2019-02-28T18:29:24.390Z,55.23
2019-02-28T18:31:57.092Z,59.63
2019-02-28T18:34:44.552Z,65.17
2019-02-28T18:37:14.112Z,61.33
2019-02-28T18:39:44.726Z,60.05
2019-02-28T18:42:20.761Z,57.33
2019-02-28T18:44:50.351Z,58.63
2019-02-28T18:47:19.887Z,60.17
2019-02-28T18:49:49.502Z,56.88
2019-02-28T18:52:20.220Z,54.57
2019-02-28T18:55:05.583Z,58.13
2019-02-28T18:57:33.489Z,66.07
2019-02-28T19:00:05.548Z,62.53
2019-02-28T19:02:35.058Z,61.47
2019-02-28T19:05:07.035Z,67.35
2019-02-28T19:07:37.758Z,46.00
2019-02-28T19:10:08.030Z,54.93
2019-02-28T19:12:37.840Z,64.60
2019-02-28T19:15:07.842Z,76.60
2019-02-28T19:17:37.978Z,79.70
2019-02-28T19:20:08.399Z,58.20
2019-02-28T19:22:38.904Z,55.75
2019-02-28T19:25:08.790Z,64.03
2019-02-28T19:27:38.413Z,72.03
2019-02-28T19:30:10.194Z,71.47
2019-02-28T19:32:41.571Z,62.20
2019-02-28T19:35:11.238Z,59.47
2019-02-28T19:37:40.895Z,61.33
2019-02-28T19:40:10.700Z,55.10
2019-02-28T19:42:40.361Z,74.87
2019-02-28T19:45:12.762Z,60.80
2019-02-28T19:47:42.313Z,68.47
2019-02-28T19:50:11.937Z,68.57
2019-02-28T19:52:41.474Z,83.57
2019-02-28T19:55:12.188Z,75.73
2019-02-28T19:57:43.533Z,70.63
2019-02-28T20:00:15.680Z,85.83
2019-02-28T20:03:04.478Z,71.03
2019-02-28T20:05:34.019Z,67.77
2019-02-28T20:08:03.975Z,73.17
2019-02-28T20:10:33.592Z,76.33
2019-02-28T20:15:53.464Z,70.27
2019-02-28T20:18:23.122Z,73.57
2019-02-28T20:20:52.712Z,76.50
2019-02-28T20:23:22.309Z,71.53
2019-02-28T20:28:52.501Z,94.03
2019-02-28T20:31:22.066Z,65.05
2019-02-28T20:33:51.607Z,63.87
2019-02-28T20:36:21.206Z,76.30
2019-02-28T20:38:52.414Z,76.93
2019-02-28T20:41:22.001Z,84.20
2019-02-28T20:43:51.529Z,72.90
2019-02-28T20:46:21.093Z,68.90
2019-02-28T20:48:50.639Z,64.93
2019-02-28T20:51:20.231Z,65.53
2019-02-28T20:53:51.439Z,73.87
2019-02-28T20:56:21.084Z,55.67
2019-02-28T20:58:50.615Z,69.03
2019-02-28T21:01:20.200Z,75.13
2019-02-28T21:03:49.798Z,62.23
2019-02-28T21:06:19.382Z,72.20
2019-02-28T21:11:39.082Z,78.43
2019-02-28T21:14:08.817Z,72.78
2019-02-28T21:16:38.815Z,64.45
2019-02-28T21:19:08.964Z,74.58
2019-02-28T21:21:57.619Z,64.32
2019-02-28T21:24:27.126Z,69.00
2019-02-28T21:26:56.712Z,68.80
2019-02-28T21:29:26.329Z,71.93
2019-02-28T21:31:57.489Z,75.37
2019-02-28T21:34:28.745Z,68.50
2019-02-28T21:36:58.569Z,66.67
2019-02-28T21:39:28.237Z,68.83
2019-02-28T21:41:57.940Z,76.12
2019-02-28T21:44:27.541Z,61.33
2019-02-28T21:46:58.769Z,73.67
2019-02-28T21:49:28.295Z,70.43
2019-02-28T21:51:57.920Z,86.10
2019-02-28T21:54:29.091Z,77.13
2019-02-28T21:56:58.694Z,59.70
2019-02-28T21:59:28.384Z,58.77
2019-02-28T22:02:18.655Z,74.53
2019-02-28T22:04:53.828Z,70.37
2019-02-28T22:07:23.381Z,66.90
2019-02-28T22:09:52.917Z,50.55
2019-02-28T22:12:22.433Z,80.50
2019-02-28T22:14:51.979Z,69.97
2019-02-28T22:17:21.538Z,57.48
2019-02-28T22:19:52.714Z,62.10
2019-02-28T22:22:22.286Z,60.85
2019-02-28T22:24:51.834Z,58.60
2019-02-28T22:27:21.440Z,49.77
2019-02-28T22:29:51.082Z,54.90
2019-02-28T22:32:24.836Z,43.50
2019-02-28T22:35:13.357Z,58.00
2019-02-28T22:37:43.011Z,60.77
2019-02-28T22:40:12.553Z,63.33
2019-02-28T22:42:42.147Z,73.20
2019-02-28T22:45:11.752Z,51.00
2019-02-28T22:47:41.313Z,63.20
2019-02-28T22:50:10.870Z,72.93
2019-02-28T22:52:40.632Z,62.13
2019-02-28T22:55:10.266Z,65.27
2019-02-28T22:57:39.775Z,74.47
2019-02-28T23:03:47.684Z,64.90
2019-02-28T23:06:17.281Z,68.90
2019-02-28T23:08:46.818Z,63.28
2019-02-28T23:11:16.388Z,72.15
2019-02-28T23:13:45.912Z,61.00
2019-02-28T23:16:15.524Z,73.55
2019-02-28T23:18:45.048Z,57.13
2019-02-28T23:21:14.572Z,65.90
2019-02-28T23:23:44.125Z,58.20
2019-02-28T23:26:15.186Z,68.30
2019-02-28T23:28:52.591Z,65.03
2019-02-28T23:31:48.150Z,69.00
2019-02-28T23:34:38.142Z,64.03
2019-02-28T23:37:07.667Z,68.40
2019-02-28T23:39:37.210Z,70.33
2019-02-28T23:42:06.743Z,67.07
2019-02-28T23:44:36.290Z,65.23
2019-02-28T23:47:05.855Z,70.55
2019-02-28T23:49:35.420Z,61.17
2019-02-28T23:52:04.996Z,68.23
2019-02-28T23:54:34.543Z,60.67
2019-02-28T23:57:04.195Z,68.93
2019-02-28T23:59:33.705Z,70.97
